sensor_id;sensor_type;location;lat;lon;timestamp;pressure;altitude;pressure_sealevel;temperature;humidity
38022;BME280;23832;43.216;27.946;2022-09-17T00:01:05;99797.44;;;27.08;100.00
38022;BME280;23832;43.216;27.946;2022-09-17T00:03:08;99801.25;;;27.07;100.00
38022;BME280;23832;43.216;27.946;2022-09-17T00:05:10;99793.44;;;27.06;100.00
38022;BME280;23832;43.216;27.946;2022-09-17T00:07:12;99792.94;;;27.04;100.00
38022;BME280;23832;43.216;27.946;2022-09-17T00:09:15;99800.03;;;27.00;100.00
38022;BME280;23832;43.216;27.946;2022-09-17T00:11:19;99788.72;;;26.98;100.00
38022;BME280;23832;43.216;27.946;2022-09-17T00:13:23;99786.00;;;26.98;100.00
38022;BME280;23832;43.216;27.946;2022-09-17T00:15:25;99778.69;;;26.98;100.00
38022;BME280;23832;43.216;27.946;2022-09-17T00:17:27;99772.19;;;26.99;100.00
38022;BME280;23832;43.216;27.946;2022-09-17T00:19:29;99778.69;;;26.98;100.00
38022;BME280;23832;43.216;27.946;2022-09-17T00:21:31;99776.56;;;26.95;100.00
38022;BME280;23832;43.216;27.946;2022-09-17T00:23:33;99779.28;;;26.95;100.00
38022;BME280;23832;43.216;27.946;2022-09-17T00:25:37;99776.78;;;26.99;100.00
38022;BME280;23832;43.216;27.946;2022-09-17T00:27:39;99784.28;;;27.02;100.00
38022;BME280;23832;43.216;27.946;2022-09-17T00:29:42;99790.44;;;27.07;100.00
38022;BME280;23832;43.216;27.946;2022-09-17T00:31:44;99782.63;;;27.06;100.00
38022;BME280;23832;43.216;27.946;2022-09-17T00:33:46;99782.91;;;27.04;100.00
38022;BME280;23832;43.216;27.946;2022-09-17T00:35:57;99781.91;;;27.00;100.00
38022;BME280;23832;43.216;27.946;2022-09-17T00:37:59;99775.50;;;26.96;100.00
38022;BME280;23832;43.216;27.946;2022-09-17T00:40:01;99774.41;;;26.97;100.00
38022;BME280;23832;43.216;27.946;2022-09-17T00:42:03;99772.81;;;26.96;100.00
38022;BME280;23832;43.216;27.946;2022-09-17T00:44:40;99762.56;;;26.93;100.00
38022;BME280;23832;43.216;27.946;2022-09-17T00:46:45;99767.00;;;26.89;100.00
38022;BME280;23832;43.216;27.946;2022-09-17T00:48:47;99765.38;;;26.88;100.00
38022;BME280;23832;43.216;27.946;2022-09-17T00:50:51;99759.75;;;26.84;100.00
38022;BME280;23832;43.216;27.946;2022-09-17T00:52:57;99762.59;;;26.79;100.00
38022;BME280;23832;43.216;27.946;2022-09-17T00:55:06;99761.38;;;26.72;100.00
38022;BME280;23832;43.216;27.946;2022-09-17T00:57:10;99770.38;;;26.67;100.00
38022;BME280;23832;43.216;27.946;2022-09-17T00:59:13;99759.38;;;26.64;100.00
38022;BME280;23832;43.216;27.946;2022-09-17T01:01:16;99770.00;;;26.60;100.00
38022;BME280;23832;43.216;27.946;2022-09-17T01:03:19;99772.50;;;26.56;100.00
38022;BME280;23832;43.216;27.946;2022-09-17T01:05:31;99773.09;;;26.53;100.00
38022;BME280;23832;43.216;27.946;2022-09-17T01:07:45;99771.78;;;26.51;100.00
38022;BME280;23832;43.216;27.946;2022-09-17T01:09:53;99771.78;;;26.51;100.00
38022;BME280;23832;43.216;27.946;2022-09-17T01:12:14;99766.78;;;26.44;100.00
38022;BME280;23832;43.216;27.946;2022-09-17T01:14:31;99769.00;;;26.42;100.00
38022;BME280;23832;43.216;27.946;2022-09-17T01:16:44;99767.09;;;26.43;100.00
38022;BME280;23832;43.216;27.946;2022-09-17T01:18:59;99774.59;;;26.46;100.00
38022;BME280;23832;43.216;27.946;2022-09-17T01:21:29;99773.38;;;26.38;100.00
38022;BME280;23832;43.216;27.946;2022-09-17T01:24:05;99780.97;;;26.36;100.00
38022;BME280;23832;43.216;27.946;2022-09-17T01:26:33;99783.75;;;26.31;100.00
38022;BME280;23832;43.216;27.946;2022-09-17T01:28:44;99781.03;;;26.31;100.00
38022;BME280;23832;43.216;27.946;2022-09-17T01:31:01;99761.22;;;26.22;100.00
38022;BME280;23832;43.216;27.946;2022-09-17T01:33:09;99761.78;;;26.38;100.00
38022;BME280;23832;43.216;27.946;2022-09-17T01:35:16;99757.66;;;26.40;100.00
38022;BME280;23832;43.216;27.946;2022-09-17T01:37:26;99764.88;;;26.45;100.00
38022;BME280;23832;43.216;27.946;2022-09-17T01:39:41;99760.78;;;26.47;100.00
38022;BME280;23832;43.216;27.946;2022-09-17T01:41:50;99758.25;;;26.51;100.00
38022;BME280;23832;43.216;27.946;2022-09-17T01:43:58;99759.88;;;26.52;100.00
38022;BME280;23832;43.216;27.946;2022-09-17T01:46:09;99754.19;;;26.53;100.00
38022;BME280;23832;43.216;27.946;2022-09-17T01:48:15;99753.38;;;26.53;100.00
38022;BME280;23832;43.216;27.946;2022-09-17T01:50:22;99765.41;;;26.61;100.00
38022;BME280;23832;43.216;27.946;2022-09-17T01:52:26;99775.59;;;26.64;100.00
38022;BME280;23832;43.216;27.946;2022-09-17T01:54:33;99752.56;;;26.66;100.00
38022;BME280;23832;43.216;27.946;2022-09-17T01:56:41;99734.34;;;26.58;100.00
38022;BME280;23832;43.216;27.946;2022-09-17T01:58:48;99748.38;;;26.74;100.00
38022;BME280;23832;43.216;27.946;2022-09-17T02:00:57;99746.75;;;26.73;100.00
38022;BME280;23832;43.216;27.946;2022-09-17T02:03:07;99744.06;;;26.73;100.00
38022;BME280;23832;43.216;27.946;2022-09-17T02:05:14;99751.69;;;26.71;100.00
38022;BME280;23832;43.216;27.946;2022-09-17T02:07:18;99743.03;;;26.69;100.00
38022;BME280;23832;43.216;27.946;2022-09-17T02:09:25;99749.47;;;26.73;100.00
38022;BME280;23832;43.216;27.946;2022-09-17T02:11:29;99742.66;;;26.75;100.00
38022;BME280;23832;43.216;27.946;2022-09-17T02:13:41;99749.66;;;26.76;100.00
38022;BME280;23832;43.216;27.946;2022-09-17T02:15:47;99752.88;;;26.78;100.00
38022;BME280;23832;43.216;27.946;2022-09-17T02:17:54;99749.56;;;26.81;100.00
38022;BME280;23832;43.216;27.946;2022-09-17T02:20:00;99748.66;;;26.86;100.00
38022;BME280;23832;43.216;27.946;2022-09-17T02:22:07;99754.28;;;26.90;100.00
38022;BME280;23832;43.216;27.946;2022-09-17T02:24:16;99747.75;;;26.91;100.00
38022;BME280;23832;43.216;27.946;2022-09-17T02:26:21;99751.56;;;26.90;100.00
38022;BME280;23832;43.216;27.946;2022-09-17T02:28:28;99741.06;;;26.88;100.00
38022;BME280;23832;43.216;27.946;2022-09-17T02:30:36;99744.88;;;26.87;100.00
38022;BME280;23832;43.216;27.946;2022-09-17T02:32:38;99740.53;;;26.86;100.00
38022;BME280;23832;43.216;27.946;2022-09-17T02:34:41;99748.66;;;26.86;100.00
38022;BME280;23832;43.216;27.946;2022-09-17T02:36:45;99737.03;;;26.85;100.00
38022;BME280;23832;43.216;27.946;2022-09-17T02:38:47;99745.13;;;26.85;100.00
38022;BME280;23832;43.216;27.946;2022-09-17T02:40:52;99733.53;;;26.85;100.00
38022;BME280;23832;43.216;27.946;2022-09-17T02:43:08;99736.53;;;26.83;100.00
38022;BME280;23832;43.216;27.946;2022-09-17T02:45:17;99727.72;;;26.78;100.00
38022;BME280;23832;43.216;27.946;2022-09-17T02:50:14;99724.91;;;26.83;100.00
38022;BME280;23832;43.216;27.946;2022-09-17T02:52:31;99696.91;;;26.65;100.00
38022;BME280;23832;43.216;27.946;2022-09-17T02:54:41;99725.63;;;26.88;100.00
38022;BME280;23832;43.216;27.946;2022-09-17T02:56:51;99715.00;;;26.92;100.00
38022;BME280;23832;43.216;27.946;2022-09-17T02:59:01;99717.38;;;26.94;100.00
38022;BME280;23832;43.216;27.946;2022-09-17T03:01:15;99717.69;;;26.92;100.00
38022;BME280;23832;43.216;27.946;2022-09-17T03:03:21;99722.50;;;26.95;100.00
38022;BME280;23832;43.216;27.946;2022-09-17T03:05:27;99718.97;;;26.95;100.00
38022;BME280;23832;43.216;27.946;2022-09-17T03:07:32;99721.91;;;26.98;100.00
38022;BME280;23832;43.216;27.946;2022-09-17T03:09:34;99719.69;;;27.00;100.00
38022;BME280;23832;43.216;27.946;2022-09-17T03:11:36;99710.97;;;27.03;100.00
38022;BME280;23832;43.216;27.946;2022-09-17T03:13:38;99701.47;;;27.06;100.00
38022;BME280;23832;43.216;27.946;2022-09-17T03:15:40;99693.84;;;27.08;100.00
38022;BME280;23832;43.216;27.946;2022-09-17T03:17:42;99700.88;;;27.09;100.00
38022;BME280;23832;43.216;27.946;2022-09-17T03:19:43;99670.91;;;26.92;100.00
38022;BME280;23832;43.216;27.946;2022-09-17T03:21:45;99697.34;;;27.08;100.00
38022;BME280;23832;43.216;27.946;2022-09-17T03:23:49;99693.66;;;27.04;100.00
38022;BME280;23832;43.216;27.946;2022-09-17T03:25:51;99694.22;;;27.01;100.00
38022;BME280;23832;43.216;27.946;2022-09-17T03:27:52;99692.47;;;26.97;100.00
38022;BME280;23832;43.216;27.946;2022-09-17T03:29:55;99694.47;;;26.91;100.00
38022;BME280;23832;43.216;27.946;2022-09-17T03:31:57;99689.69;;;26.88;100.00
38022;BME280;23832;43.216;27.946;2022-09-17T03:33:59;99694.06;;;26.84;100.00
38022;BME280;23832;43.216;27.946;2022-09-17T03:36:01;99692.47;;;26.83;100.00
38022;BME280;23832;43.216;27.946;2022-09-17T03:38:03;99697.69;;;26.79;100.00
38022;BME280;23832;43.216;27.946;2022-09-17T03:40:07;99702.31;;;26.79;100.00
38022;BME280;23832;43.216;27.946;2022-09-17T03:42:09;99717.44;;;26.80;100.00
38022;BME280;23832;43.216;27.946;2022-09-17T03:44:11;99714.19;;;26.78;100.00
38022;BME280;23832;43.216;27.946;2022-09-17T03:46:15;99716.09;;;26.77;100.00
38022;BME280;23832;43.216;27.946;2022-09-17T03:48:16;99709.91;;;26.77;100.00
38022;BME280;23832;43.216;27.946;2022-09-17T03:50:18;99709.91;;;26.77;100.00
38022;BME280;23832;43.216;27.946;2022-09-17T03:52:20;99673.91;;;26.54;100.00
38022;BME280;23832;43.216;27.946;2022-09-17T03:54:22;99704.78;;;26.75;100.00
38022;BME280;23832;43.216;27.946;2022-09-17T03:56:26;99697.78;;;26.74;100.00
38022;BME280;23832;43.216;27.946;2022-09-17T03:58:29;99697.59;;;26.71;100.00
38022;BME280;23832;43.216;27.946;2022-09-17T04:00:32;99704.91;;;26.70;100.00
38022;BME280;23832;43.216;27.946;2022-09-17T04:02:36;99707.09;;;26.68;100.00
38022;BME280;23832;43.216;27.946;2022-09-17T04:04:38;99705.50;;;26.67;100.00
38022;BME280;23832;43.216;27.946;2022-09-17T04:06:40;99707.72;;;26.65;100.00
38022;BME280;23832;43.216;27.946;2022-09-17T04:08:42;99693.41;;;26.65;100.00
38022;BME280;23832;43.216;27.946;2022-09-17T04:10:44;99693.91;;;26.67;100.00
38022;BME280;23832;43.216;27.946;2022-09-17T04:12:48;99685.47;;;26.68;100.00
38022;BME280;23832;43.216;27.946;2022-09-17T04:14:50;99683.56;;;26.69;100.00
38022;BME280;23832;43.216;27.946;2022-09-17T04:16:52;99688.69;;;26.70;100.00
38022;BME280;23832;43.216;27.946;2022-09-17T04:18:54;99675.78;;;26.67;100.00
38022;BME280;23832;43.216;27.946;2022-09-17T04:20:56;99675.78;;;26.67;100.00
38022;BME280;23832;43.216;27.946;2022-09-17T04:22:57;99676.06;;;26.66;100.00
38022;BME280;23832;43.216;27.946;2022-09-17T04:24:59;99675.59;;;26.64;100.00
38022;BME280;23832;43.216;27.946;2022-09-17T04:27:01;99677.50;;;26.63;100.00
38022;BME280;23832;43.216;27.946;2022-09-17T04:29:05;99661.44;;;26.67;100.00
38022;BME280;23832;43.216;27.946;2022-09-17T04:31:07;99660.47;;;26.63;100.00
38022;BME280;23832;43.216;27.946;2022-09-17T04:33:09;99668.66;;;26.71;100.00
38022;BME280;23832;43.216;27.946;2022-09-17T04:35:12;99680.47;;;26.75;100.00
38022;BME280;23832;43.216;27.946;2022-09-17T04:37:14;99683.66;;;26.77;100.00
38022;BME280;23832;43.216;27.946;2022-09-17T04:39:16;99689.28;;;26.81;100.00
38022;BME280;23832;43.216;27.946;2022-09-17T04:41:18;99690.78;;;26.87;100.00
38022;BME280;23832;43.216;27.946;2022-09-17T04:43:20;99684.63;;;26.95;100.00
38022;BME280;23832;43.216;27.946;2022-09-17T04:45:24;99687.44;;;27.04;100.00
38022;BME280;23832;43.216;27.946;2022-09-17T04:47:26;99681.63;;;27.10;100.00
38022;BME280;23832;43.216;27.946;2022-09-17T04:49:29;99684.88;;;27.21;100.00
38022;BME280;23832;43.216;27.946;2022-09-17T04:51:31;99680.34;;;27.30;100.00
38022;BME280;23832;43.216;27.946;2022-09-17T04:53:33;99680.91;;;27.41;100.00
38022;BME280;23832;43.216;27.946;2022-09-17T04:55:36;99667.72;;;27.48;100.00
38022;BME280;23832;43.216;27.946;2022-09-17T04:57:38;99669.38;;;27.58;100.00
38022;BME280;23832;43.216;27.946;2022-09-17T04:59:40;99663.25;;;27.66;100.00
38022;BME280;23832;43.216;27.946;2022-09-17T05:01:43;99665.69;;;27.76;100.00
38022;BME280;23832;43.216;27.946;2022-09-17T05:03:45;99656.81;;;27.84;100.00
38022;BME280;23832;43.216;27.946;2022-09-17T05:05:47;99662.78;;;27.95;100.00
38022;BME280;23832;43.216;27.946;2022-09-17T05:07:49;99651.03;;;28.08;100.00
38022;BME280;23832;43.216;27.946;2022-09-17T05:09:51;99645.81;;;28.20;100.00
38022;BME280;23832;43.216;27.946;2022-09-17T05:11:53;99640.66;;;28.33;100.00
38022;BME280;23832;43.216;27.946;2022-09-17T05:13:55;99637.78;;;28.46;100.00
38022;BME280;23832;43.216;27.946;2022-09-17T05:15:57;99645.81;;;28.60;100.00
38022;BME280;23832;43.216;27.946;2022-09-17T05:18:01;99639.09;;;28.75;100.00
38022;BME280;23832;43.216;27.946;2022-09-17T05:20:03;99636.59;;;28.87;100.00
38022;BME280;23832;43.216;27.946;2022-09-17T05:22:05;99637.88;;;28.98;100.00
38022;BME280;23832;43.216;27.946;2022-09-17T05:24:07;99636.78;;;29.08;99.43
38022;BME280;23832;43.216;27.946;2022-09-17T05:26:09;99643.00;;;29.17;100.00
38022;BME280;23832;43.216;27.946;2022-09-17T05:28:11;99641.53;;;29.28;100.00
38022;BME280;23832;43.216;27.946;2022-09-17T05:30:13;99645.03;;;29.37;98.77
38022;BME280;23832;43.216;27.946;2022-09-17T05:32:15;99658.31;;;29.48;99.18
38022;BME280;23832;43.216;27.946;2022-09-17T05:34:19;99650.63;;;29.58;100.00
38022;BME280;23832;43.216;27.946;2022-09-17T05:36:21;99656.66;;;29.64;100.00
38022;BME280;23832;43.216;27.946;2022-09-17T05:38:23;99640.38;;;29.64;100.00
38022;BME280;23832;43.216;27.946;2022-09-17T05:40:25;99649.97;;;29.70;100.00
38022;BME280;23832;43.216;27.946;2022-09-17T05:42:28;99641.00;;;29.78;100.00
38022;BME280;23832;43.216;27.946;2022-09-17T05:44:29;99635.19;;;29.88;100.00
38022;BME280;23832;43.216;27.946;2022-09-17T05:46:32;99631.16;;;30.03;100.00
38022;BME280;23832;43.216;27.946;2022-09-17T05:48:33;99634.00;;;30.15;100.00
38022;BME280;23832;43.216;27.946;2022-09-17T05:50:37;99639.50;;;30.28;100.00
38022;BME280;23832;43.216;27.946;2022-09-17T05:52:39;99641.72;;;30.34;100.00
38022;BME280;23832;43.216;27.946;2022-09-17T05:54:41;99633.84;;;30.41;96.18
38022;BME280;23832;43.216;27.946;2022-09-17T05:56:44;99635.25;;;30.47;94.72
38022;BME280;23832;43.216;27.946;2022-09-17T05:58:46;99625.13;;;30.57;92.43
38022;BME280;23832;43.216;27.946;2022-09-17T06:00:48;99632.47;;;30.65;90.52
38022;BME280;23832;43.216;27.946;2022-09-17T06:02:53;99627.75;;;30.74;87.61
38022;BME280;23832;43.216;27.946;2022-09-17T06:04:55;99632.97;;;30.79;82.26
38022;BME280;23832;43.216;27.946;2022-09-17T06:07:03;99632.00;;;30.84;79.91
38022;BME280;23832;43.216;27.946;2022-09-17T06:09:05;99633.13;;;30.83;72.82
38022;BME280;23832;43.216;27.946;2022-09-17T06:11:08;99637.75;;;30.82;70.25
38022;BME280;23832;43.216;27.946;2022-09-17T06:13:10;99640.16;;;30.84;70.09
38022;BME280;23832;43.216;27.946;2022-09-17T06:15:12;99635.19;;;30.86;69.74
38022;BME280;23832;43.216;27.946;2022-09-17T06:17:14;99644.59;;;30.88;68.06
38022;BME280;23832;43.216;27.946;2022-09-17T06:19:16;99644.13;;;30.86;66.22
38022;BME280;23832;43.216;27.946;2022-09-17T06:21:18;99641.41;;;30.86;66.89
38022;BME280;23832;43.216;27.946;2022-09-17T06:23:24;99643.13;;;30.91;68.42
38022;BME280;23832;43.216;27.946;2022-09-17T06:25:26;99644.88;;;30.95;70.83
38022;BME280;23832;43.216;27.946;2022-09-17T06:27:30;99643.47;;;31.10;72.57
38022;BME280;23832;43.216;27.946;2022-09-17T06:29:32;99628.00;;;31.23;71.62
38022;BME280;23832;43.216;27.946;2022-09-17T06:31:34;99620.66;;;31.35;70.46
38022;BME280;23832;43.216;27.946;2022-09-17T06:33:37;99613.06;;;31.41;70.41
38022;BME280;23832;43.216;27.946;2022-09-17T06:35:39;99632.22;;;31.66;71.55
38022;BME280;23832;43.216;27.946;2022-09-17T06:37:41;99623.88;;;31.83;71.90
38022;BME280;23832;43.216;27.946;2022-09-17T06:39:44;99623.19;;;31.98;70.36
38022;BME280;23832;43.216;27.946;2022-09-17T06:41:47;99620.47;;;32.10;70.21
38022;BME280;23832;43.216;27.946;2022-09-17T06:43:51;99625.69;;;32.28;70.87
38022;BME280;23832;43.216;27.946;2022-09-17T06:45:54;99633.53;;;32.41;70.97
38022;BME280;23832;43.216;27.946;2022-09-17T06:47:56;99629.31;;;32.56;71.17
38022;BME280;23832;43.216;27.946;2022-09-17T06:49:58;99633.59;;;32.69;70.92
38022;BME280;23832;43.216;27.946;2022-09-17T06:52:01;99597.69;;;32.67;71.18
38022;BME280;23832;43.216;27.946;2022-09-17T06:54:03;99629.63;;;33.07;70.87
38022;BME280;23832;43.216;27.946;2022-09-17T06:56:08;99624.78;;;33.28;69.45
38022;BME280;23832;43.216;27.946;2022-09-17T06:58:10;99616.28;;;33.46;68.41
38022;BME280;23832;43.216;27.946;2022-09-17T07:00:13;99616.19;;;33.58;66.24
38022;BME280;23832;43.216;27.946;2022-09-17T07:02:15;99623.78;;;33.65;64.41
38022;BME280;23832;43.216;27.946;2022-09-17T07:04:17;99624.66;;;33.69;63.36
38022;BME280;23832;43.216;27.946;2022-09-17T07:06:19;99630.59;;;33.71;61.87
38022;BME280;23832;43.216;27.946;2022-09-17T07:08:21;99634.13;;;33.71;60.33
38022;BME280;23832;43.216;27.946;2022-09-17T07:10:23;99624.78;;;33.72;60.19
38022;BME280;23832;43.216;27.946;2022-09-17T07:12:27;99629.97;;;33.77;59.66
38022;BME280;23832;43.216;27.946;2022-09-17T07:14:29;99633.59;;;33.81;60.24
38022;BME280;23832;43.216;27.946;2022-09-17T07:16:31;99638.56;;;33.92;59.75
38022;BME280;23832;43.216;27.946;2022-09-17T07:18:36;99635.72;;;34.04;58.66
38022;BME280;23832;43.216;27.946;2022-09-17T07:20:38;99635.63;;;34.16;57.06
38022;BME280;23832;43.216;27.946;2022-09-17T07:22:40;99625.31;;;34.25;54.92
38022;BME280;23832;43.216;27.946;2022-09-17T07:24:42;99624.59;;;34.28;53.08
38022;BME280;23832;43.216;27.946;2022-09-17T07:26:44;99622.38;;;34.34;51.91
38022;BME280;23832;43.216;27.946;2022-09-17T07:28:47;99631.91;;;34.40;51.73
38022;BME280;23832;43.216;27.946;2022-09-17T07:30:50;99633.84;;;34.39;50.61
38022;BME280;23832;43.216;27.946;2022-09-17T07:32:52;99642.06;;;34.39;50.68
38022;BME280;23832;43.216;27.946;2022-09-17T07:34:54;99643.31;;;34.42;50.46
38022;BME280;23832;43.216;27.946;2022-09-17T07:36:56;99635.16;;;34.46;49.07
38022;BME280;23832;43.216;27.946;2022-09-17T07:38:58;99636.31;;;34.45;48.29
38022;BME280;23832;43.216;27.946;2022-09-17T07:41:02;99639.47;;;34.47;47.63
38022;BME280;23832;43.216;27.946;2022-09-17T07:43:04;99642.47;;;34.41;46.11
38022;BME280;23832;43.216;27.946;2022-09-17T07:45:08;99634.09;;;34.34;45.82
38022;BME280;23832;43.216;27.946;2022-09-17T07:47:10;99631.38;;;34.34;46.46
38022;BME280;23832;43.216;27.946;2022-09-17T07:49:12;99637.28;;;34.36;45.90
38022;BME280;23832;43.216;27.946;2022-09-17T07:51:15;99634.72;;;34.43;46.09
38022;BME280;23832;43.216;27.946;2022-09-17T07:53:18;99627.53;;;34.55;45.74
38022;BME280;23832;43.216;27.946;2022-09-17T07:55:20;99634.47;;;34.68;45.32
38022;BME280;23832;43.216;27.946;2022-09-17T07:57:23;99628.50;;;34.82;45.39
38022;BME280;23832;43.216;27.946;2022-09-17T07:59:25;99626.44;;;34.94;44.38
38022;BME280;23832;43.216;27.946;2022-09-17T08:01:28;99618.88;;;35.07;43.81
38022;BME280;23832;43.216;27.946;2022-09-17T08:03:33;99626.56;;;35.21;43.39
38022;BME280;23832;43.216;27.946;2022-09-17T08:05:35;99621.09;;;35.21;42.56
38022;BME280;23832;43.216;27.946;2022-09-17T08:07:37;99619.69;;;35.31;42.31
38022;BME280;23832;43.216;27.946;2022-09-17T08:09:39;99620.63;;;35.38;42.31
38022;BME280;23832;43.216;27.946;2022-09-17T08:11:41;99617.03;;;35.53;42.17
38022;BME280;23832;43.216;27.946;2022-09-17T08:13:47;99617.25;;;35.68;42.63
38022;BME280;23832;43.216;27.946;2022-09-17T08:15:49;99607.69;;;35.81;42.23
38022;BME280;23832;43.216;27.946;2022-09-17T08:17:53;99616.19;;;35.95;41.99
38022;BME280;23832;43.216;27.946;2022-09-17T08:19:54;99607.72;;;36.04;41.83
38022;BME280;23832;43.216;27.946;2022-09-17T08:21:56;99616.47;;;36.13;41.59
38022;BME280;23832;43.216;27.946;2022-09-17T08:23:58;99604.06;;;36.23;41.25
38022;BME280;23832;43.216;27.946;2022-09-17T08:26:01;99600.94;;;36.24;40.47
38022;BME280;23832;43.216;27.946;2022-09-17T08:28:03;99606.47;;;36.28;40.22
38022;BME280;23832;43.216;27.946;2022-09-17T08:30:06;99594.03;;;36.34;40.13
38022;BME280;23832;43.216;27.946;2022-09-17T08:32:08;99589.50;;;36.45;39.81
38022;BME280;23832;43.216;27.946;2022-09-17T08:34:12;99595.13;;;36.56;39.82
38022;BME280;23832;43.216;27.946;2022-09-17T08:36:16;99599.25;;;36.73;39.73
38022;BME280;23832;43.216;27.946;2022-09-17T08:38:19;99595.97;;;36.90;39.75
38022;BME280;23832;43.216;27.946;2022-09-17T08:40:22;99590.16;;;36.95;38.70
38022;BME280;23832;43.216;27.946;2022-09-17T08:42:31;99594.19;;;37.08;38.50
38022;BME280;23832;43.216;27.946;2022-09-17T08:44:40;99601.75;;;37.15;38.42
38022;BME280;23832;43.216;27.946;2022-09-17T08:46:46;99590.19;;;37.02;38.21
38022;BME280;23832;43.216;27.946;2022-09-17T08:48:55;99585.09;;;37.01;38.22
38022;BME280;23832;43.216;27.946;2022-09-17T08:51:07;99582.63;;;36.92;38.51
38022;BME280;23832;43.216;27.946;2022-09-17T08:55:42;99574.69;;;36.83;38.72
38022;BME280;23832;43.216;27.946;2022-09-17T08:57:53;99569.66;;;36.89;38.54
38022;BME280;23832;43.216;27.946;2022-09-17T09:00:03;99579.59;;;37.01;38.67
38022;BME280;23832;43.216;27.946;2022-09-17T09:02:17;99569.53;;;37.12;38.77
38022;BME280;23832;43.216;27.946;2022-09-17T09:04:53;99568.06;;;37.25;38.13
38022;BME280;23832;43.216;27.946;2022-09-17T09:07:01;99550.16;;;37.38;38.54
38022;BME280;23832;43.216;27.946;2022-09-17T09:09:09;99557.75;;;37.52;38.78
38022;BME280;23832;43.216;27.946;2022-09-17T09:11:14;99555.91;;;37.70;39.02
38022;BME280;23832;43.216;27.946;2022-09-17T09:13:18;99549.00;;;37.91;38.77
38022;BME280;23832;43.216;27.946;2022-09-17T09:15:31;99546.75;;;38.07;38.69
38022;BME280;23832;43.216;27.946;2022-09-17T09:17:39;99539.03;;;38.27;39.12
38022;BME280;23832;43.216;27.946;2022-09-17T09:19:43;99547.41;;;38.52;38.91
38022;BME280;23832;43.216;27.946;2022-09-17T09:21:59;99538.09;;;38.74;38.84
38022;BME280;23832;43.216;27.946;2022-09-17T09:24:06;99542.41;;;38.82;38.45
38022;BME280;23832;43.216;27.946;2022-09-17T09:26:16;99547.50;;;38.70;38.34
38022;BME280;23832;43.216;27.946;2022-09-17T09:28:29;99549.81;;;38.64;38.70
38022;BME280;23832;43.216;27.946;2022-09-17T09:30:42;99538.72;;;38.43;38.94
38022;BME280;23832;43.216;27.946;2022-09-17T09:32:54;99546.41;;;38.16;39.49
38022;BME280;23832;43.216;27.946;2022-09-17T09:34:59;99548.66;;;37.96;40.57
38022;BME280;23832;43.216;27.946;2022-09-17T09:37:12;99537.00;;;37.62;40.81
38022;BME280;23832;43.216;27.946;2022-09-17T09:39:20;99535.63;;;37.38;41.91
38022;BME280;23832;43.216;27.946;2022-09-17T09:41:28;99538.94;;;37.13;42.54
38022;BME280;23832;43.216;27.946;2022-09-17T09:43:40;99529.16;;;37.19;43.33
38022;BME280;23832;43.216;27.946;2022-09-17T09:46:00;99519.81;;;37.28;43.44
38022;BME280;23832;43.216;27.946;2022-09-17T09:48:11;99519.13;;;37.34;43.59
38022;BME280;23832;43.216;27.946;2022-09-17T09:50:30;99523.88;;;37.41;43.52
38022;BME280;23832;43.216;27.946;2022-09-17T09:52:47;99522.31;;;37.40;43.71
38022;BME280;23832;43.216;27.946;2022-09-17T09:55:13;99522.34;;;37.47;43.73
38022;BME280;23832;43.216;27.946;2022-09-17T09:57:30;99520.78;;;37.46;44.25
38022;BME280;23832;43.216;27.946;2022-09-17T09:59:34;99530.16;;;37.41;44.70
38022;BME280;23832;43.216;27.946;2022-09-17T10:01:39;99533.66;;;37.35;45.08
38022;BME280;23832;43.216;27.946;2022-09-17T10:03:42;99534.78;;;37.30;45.63
38022;BME280;23832;43.216;27.946;2022-09-17T10:05:56;99529.19;;;37.23;45.42
38022;BME280;23832;43.216;27.946;2022-09-17T10:08:10;99529.16;;;37.19;46.13
38022;BME280;23832;43.216;27.946;2022-09-17T10:10:12;99525.22;;;37.17;46.26
38022;BME280;23832;43.216;27.946;2022-09-17T10:12:16;99524.41;;;37.13;46.11
38022;BME280;23832;43.216;27.946;2022-09-17T10:14:23;99515.00;;;37.17;46.32
38022;BME280;23832;43.216;27.946;2022-09-17T10:16:26;99523.66;;;37.19;46.27
38022;BME280;23832;43.216;27.946;2022-09-17T10:18:29;99518.94;;;37.16;46.30
38022;BME280;23832;43.216;27.946;2022-09-17T10:20:31;99518.91;;;37.13;46.18
38022;BME280;23832;43.216;27.946;2022-09-17T10:22:34;99506.16;;;36.94;46.66
38022;BME280;23832;43.216;27.946;2022-09-17T10:24:39;99507.66;;;36.88;46.69
38022;BME280;23832;43.216;27.946;2022-09-17T10:26:41;99494.53;;;36.74;46.78
38022;BME280;23832;43.216;27.946;2022-09-17T10:28:46;99504.41;;;36.79;47.12
38022;BME280;23832;43.216;27.946;2022-09-17T10:30:55;99491.75;;;36.67;47.35
38022;BME280;23832;43.216;27.946;2022-09-17T10:33:18;99490.91;;;36.66;48.18
38022;BME280;23832;43.216;27.946;2022-09-17T10:35:24;99496.84;;;36.69;48.45
38022;BME280;23832;43.216;27.946;2022-09-17T10:37:41;99494.91;;;36.73;48.54
38022;BME280;23832;43.216;27.946;2022-09-17T10:39:45;99495.78;;;36.80;48.56
38022;BME280;23832;43.216;27.946;2022-09-17T10:41:54;99473.94;;;36.91;48.97
38022;BME280;23832;43.216;27.946;2022-09-17T10:43:56;99466.72;;;36.76;49.40
38022;BME280;23832;43.216;27.946;2022-09-17T10:46:19;99466.09;;;36.89;48.92
38022;BME280;23832;43.216;27.946;2022-09-17T10:48:27;99455.56;;;36.95;48.77
38022;BME280;23832;43.216;27.946;2022-09-17T10:50:33;99452.81;;;36.95;48.92
38022;BME280;23832;43.216;27.946;2022-09-17T10:52:38;99453.63;;;36.99;49.56
38022;BME280;23832;43.216;27.946;2022-09-17T10:57:21;99465.00;;;37.01;50.71
38022;BME280;23832;43.216;27.946;2022-09-17T10:59:58;99456.03;;;37.04;50.50